Forlì Airport LIPK

Flugplatz Daten

Name: Forlì Airport

Ident: LIPK

Lat: 44,19480133

Long: 12,07009983

Platzhöhe: 97 ft

IataCode: FRL

City: Forlì

Metar

2021/08/05 14:50
LIPK 051450Z 22011G22KT 9999 FEW040 29/14 Q1002

Taf

2021/08/05 12:21
TAF LIPK 051100Z 0512/0612 25010KT 9999 FEW040
TEMPO 0512/0518 TSRA
BECMG 0513/0516 10010KT
BECMG 0517/0520 24010KT
Gewünschte Webcam nicht vorhanden? Dann fügen Sie eine hinzu. Sie wird dann so schnell wie möglich freigeschaltet
Url: Title: